EGMD/LYX METAR and TAF weather

Enter ICAO airport designator
Station Type Date Time Source
EGMD METAR 2020/01/28 04:50 UTC NOAA

EGMD 280450Z AUTO 26013KT 9999 FEW023/// 06/04 Q0991


Station Type Date Time Source
EGMD Decoded METAR 2020/01/28 04:50 UTC NOAA

Lydd Airport , United Kingdom (EGMD) 50-57N 000-56E
Jan 27, 2020 - 11:50 PM EST / 2020.01.28 0450 UTC
Wind: from the W (260 degrees) at 15 MPH (13 KT):0
Visibility: greater than 7 mile(s):0
Sky conditions: mostly clear
Temperature: 42 F (6 C)
Dew Point: 39 F (4 C)
Relative Humidity: 86%
Pressure (altimeter): 29.26 in. Hg (0991 hPa)
ob: EGMD 280450Z AUTO 26013KT 9999 FEW023/// 06/04 Q0991
cycle: 5

Station Type Date Time Source
EGMD TAF UTC NOAA

Error!

Example: see airport list